sensor_id;sensor_type;location;lat;lon;timestamp;temperature;humidity
10662;DHT22;5379;51.034;7.006;2023-07-31T04:34:11;24.60;99.90
10662;DHT22;5379;51.034;7.006;2023-07-31T04:36:38;24.60;99.90
10662;DHT22;5379;51.034;7.006;2023-07-31T04:39:05;24.70;99.90
10662;DHT22;5379;51.034;7.006;2023-07-31T04:41:33;24.30;99.90
10662;DHT22;5379;51.034;7.006;2023-07-31T04:44:01;24.30;99.90
10662;DHT22;5379;51.034;7.006;2023-07-31T04:46:29;24.20;99.90
10662;DHT22;5379;51.034;7.006;2023-07-31T04:48:57;23.90;99.90
10662;DHT22;5379;51.034;7.006;2023-07-31T04:51:24;23.90;99.90
10662;DHT22;5379;51.034;7.006;2023-07-31T04:53:51;23.80;99.90
10662;DHT22;5379;51.034;7.006;2023-07-31T04:56:18;23.80;99.90
10662;DHT22;5379;51.034;7.006;2023-07-31T04:58:45;23.60;99.90
10662;DHT22;5379;51.034;7.006;2023-07-31T05:01:12;23.40;99.90
10662;DHT22;5379;51.034;7.006;2023-07-31T05:03:39;23.30;99.90
10662;DHT22;5379;51.034;7.006;2023-07-31T05:06:07;23.10;99.90
10662;DHT22;5379;51.034;7.006;2023-07-31T05:08:34;23.40;99.90
10662;DHT22;5379;51.034;7.006;2023-07-31T05:11:02;23.30;99.90
10662;DHT22;5379;51.034;7.006;2023-07-31T05:13:29;23.80;99.90
10662;DHT22;5379;51.034;7.006;2023-07-31T05:15:56;23.70;99.90
10662;DHT22;5379;51.034;7.006;2023-07-31T05:18:23;23.60;99.90
10662;DHT22;5379;51.034;7.006;2023-07-31T05:20:50;23.90;99.90
10662;DHT22;5379;51.034;7.006;2023-07-31T05:23:18;23.60;99.90
10662;DHT22;5379;51.034;7.006;2023-07-31T05:25:45;23.80;99.90
10662;DHT22;5379;51.034;7.006;2023-07-31T05:28:12;24.20;99.90
10662;DHT22;5379;51.034;7.006;2023-07-31T05:30:39;24.60;99.90
10662;DHT22;5379;51.034;7.006;2023-07-31T05:33:06;24.60;99.90
10662;DHT22;5379;51.034;7.006;2023-07-31T05:35:33;24.70;99.90
10662;DHT22;5379;51.034;7.006;2023-07-31T05:38:00;24.90;99.90
10662;DHT22;5379;51.034;7.006;2023-07-31T05:40:28;25.00;99.90
10662;DHT22;5379;51.034;7.006;2023-07-31T05:42:55;25.00;99.90
10662;DHT22;5379;51.034;7.006;2023-07-31T05:45:22;25.00;99.90
10662;DHT22;5379;51.034;7.006;2023-07-31T05:47:49;24.90;99.90
10662;DHT22;5379;51.034;7.006;2023-07-31T05:50:16;25.20;99.90
10662;DHT22;5379;51.034;7.006;2023-07-31T05:52:43;25.00;99.90
10662;DHT22;5379;51.034;7.006;2023-07-31T05:55:09;25.00;99.90
10662;DHT22;5379;51.034;7.006;2023-07-31T05:57:38;25.10;99.90
10662;DHT22;5379;51.034;7.006;2023-07-31T06:00:06;25.30;99.90
10662;DHT22;5379;51.034;7.006;2023-07-31T06:02:33;25.20;99.90
10662;DHT22;5379;51.034;7.006;2023-07-31T06:05:03;25.00;99.90
10662;DHT22;5379;51.034;7.006;2023-07-31T06:07:31;25.30;99.90
10662;DHT22;5379;51.034;7.006;2023-07-31T06:09:58;25.50;99.90
10662;DHT22;5379;51.034;7.006;2023-07-31T06:12:30;25.00;99.90
10662;DHT22;5379;51.034;7.006;2023-07-31T06:14:59;25.00;99.90
10662;DHT22;5379;51.034;7.006;2023-07-31T06:17:26;25.20;99.90
10662;DHT22;5379;51.034;7.006;2023-07-31T06:19:53;25.20;99.90
10662;DHT22;5379;51.034;7.006;2023-07-31T06:22:20;24.80;99.90
10662;DHT22;5379;51.034;7.006;2023-07-31T06:24:47;24.50;99.90
10662;DHT22;5379;51.034;7.006;2023-07-31T06:27:14;24.00;99.90
10662;DHT22;5379;51.034;7.006;2023-07-31T06:29:41;23.70;99.90
10662;DHT22;5379;51.034;7.006;2023-07-31T06:32:10;23.50;99.90
10662;DHT22;5379;51.034;7.006;2023-07-31T06:34:37;23.80;99.90
10662;DHT22;5379;51.034;7.006;2023-07-31T06:37:04;24.00;99.90
10662;DHT22;5379;51.034;7.006;2023-07-31T06:39:31;23.50;99.90
10662;DHT22;5379;51.034;7.006;2023-07-31T06:41:58;23.30;99.90
10662;DHT22;5379;51.034;7.006;2023-07-31T06:44:25;23.00;99.90
10662;DHT22;5379;51.034;7.006;2023-07-31T06:46:52;23.10;99.90
10662;DHT22;5379;51.034;7.006;2023-07-31T06:49:20;23.30;99.90
10662;DHT22;5379;51.034;7.006;2023-07-31T06:51:47;23.50;99.90
10662;DHT22;5379;51.034;7.006;2023-07-31T06:54:14;23.30;99.90
10662;DHT22;5379;51.034;7.006;2023-07-31T06:56:41;23.30;99.90
10662;DHT22;5379;51.034;7.006;2023-07-31T06:59:08;23.10;99.90
10662;DHT22;5379;51.034;7.006;2023-07-31T07:01:35;22.90;99.90
10662;DHT22;5379;51.034;7.006;2023-07-31T07:04:02;22.80;99.90
10662;DHT22;5379;51.034;7.006;2023-07-31T07:06:30;22.90;99.90
10662;DHT22;5379;51.034;7.006;2023-07-31T07:08:57;23.00;99.90
10662;DHT22;5379;51.034;7.006;2023-07-31T07:11:24;23.00;99.90
10662;DHT22;5379;51.034;7.006;2023-07-31T07:13:51;23.20;99.90
10662;DHT22;5379;51.034;7.006;2023-07-31T07:16:18;23.80;99.90
10662;DHT22;5379;51.034;7.006;2023-07-31T07:18:45;24.40;99.90
10662;DHT22;5379;51.034;7.006;2023-07-31T07:21:12;24.90;99.90
10662;DHT22;5379;51.034;7.006;2023-07-31T07:23:42;25.10;99.90
10662;DHT22;5379;51.034;7.006;2023-07-31T07:26:09;24.70;99.90
10662;DHT22;5379;51.034;7.006;2023-07-31T07:28:36;23.90;99.90
10662;DHT22;5379;51.034;7.006;2023-07-31T07:31:03;23.30;99.90
10662;DHT22;5379;51.034;7.006;2023-07-31T07:33:30;23.10;99.90
10662;DHT22;5379;51.034;7.006;2023-07-31T07:36:00;22.80;99.90
10662;DHT22;5379;51.034;7.006;2023-07-31T07:38:27;22.70;99.90
10662;DHT22;5379;51.034;7.006;2023-07-31T07:40:55;22.80;99.90
10662;DHT22;5379;51.034;7.006;2023-07-31T07:43:22;22.70;99.90
10662;DHT22;5379;51.034;7.006;2023-07-31T07:45:50;22.50;99.90
10662;DHT22;5379;51.034;7.006;2023-07-31T07:48:17;22.80;99.90
10662;DHT22;5379;51.034;7.006;2023-07-31T07:50:44;22.80;99.90
10662;DHT22;5379;51.034;7.006;2023-07-31T07:53:10;22.80;99.90
10662;DHT22;5379;51.034;7.006;2023-07-31T07:55:37;22.80;99.90
10662;DHT22;5379;51.034;7.006;2023-07-31T07:58:06;22.50;99.90
10662;DHT22;5379;51.034;7.006;2023-07-31T08:00:33;22.60;99.90
10662;DHT22;5379;51.034;7.006;2023-07-31T08:02:59;22.60;99.90
10662;DHT22;5379;51.034;7.006;2023-07-31T08:05:26;22.60;99.90
10662;DHT22;5379;51.034;7.006;2023-07-31T08:07:53;22.70;99.90
10662;DHT22;5379;51.034;7.006;2023-07-31T08:10:20;22.80;99.90
10662;DHT22;5379;51.034;7.006;2023-07-31T08:12:47;23.10;99.90
10662;DHT22;5379;51.034;7.006;2023-07-31T08:15:15;23.30;99.90
10662;DHT22;5379;51.034;7.006;2023-07-31T08:17:42;23.50;99.90
10662;DHT22;5379;51.034;7.006;2023-07-31T08:20:10;23.40;99.90
10662;DHT22;5379;51.034;7.006;2023-07-31T08:22:37;23.60;99.90
10662;DHT22;5379;51.034;7.006;2023-07-31T08:25:05;23.60;99.90
10662;DHT22;5379;51.034;7.006;2023-07-31T08:27:32;23.80;99.90
10662;DHT22;5379;51.034;7.006;2023-07-31T08:29:59;24.20;99.90
10662;DHT22;5379;51.034;7.006;2023-07-31T08:32:27;24.60;99.90
10662;DHT22;5379;51.034;7.006;2023-07-31T08:34:54;24.70;99.90
10662;DHT22;5379;51.034;7.006;2023-07-31T08:37:21;23.90;99.90
10662;DHT22;5379;51.034;7.006;2023-07-31T08:39:48;23.40;99.90
10662;DHT22;5379;51.034;7.006;2023-07-31T08:42:15;22.90;99.90
10662;DHT22;5379;51.034;7.006;2023-07-31T08:44:43;22.70;99.90
10662;DHT22;5379;51.034;7.006;2023-07-31T08:47:10;22.40;99.90
10662;DHT22;5379;51.034;7.006;2023-07-31T08:49:41;22.30;99.90
10662;DHT22;5379;51.034;7.006;2023-07-31T08:52:09;22.30;99.90
10662;DHT22;5379;51.034;7.006;2023-07-31T08:54:36;22.10;99.90
10662;DHT22;5379;51.034;7.006;2023-07-31T08:57:06;22.00;99.90
10662;DHT22;5379;51.034;7.006;2023-07-31T08:59:35;22.10;99.90
10662;DHT22;5379;51.034;7.006;2023-07-31T09:02:05;23.10;99.90
10662;DHT22;5379;51.034;7.006;2023-07-31T09:04:34;22.90;99.90
10662;DHT22;5379;51.034;7.006;2023-07-31T09:07:07;23.10;99.90
10662;DHT22;5379;51.034;7.006;2023-07-31T09:09:35;23.00;99.90
10662;DHT22;5379;51.034;7.006;2023-07-31T09:12:03;22.60;99.90
10662;DHT22;5379;51.034;7.006;2023-07-31T09:14:33;22.50;99.90
10662;DHT22;5379;51.034;7.006;2023-07-31T09:19:32;22.50;99.90
10662;DHT22;5379;51.034;7.006;2023-07-31T09:45:56;24.20;99.90
10662;DHT22;5379;51.034;7.006;2023-07-31T09:48:26;23.70;99.90
10662;DHT22;5379;51.034;7.006;2023-07-31T09:53:28;23.40;99.90
10662;DHT22;5379;51.034;7.006;2023-07-31T09:55:58;23.10;99.90
10662;DHT22;5379;51.034;7.006;2023-07-31T09:58:28;23.20;99.90
10662;DHT22;5379;51.034;7.006;2023-07-31T10:00:57;23.30;99.90
10662;DHT22;5379;51.034;7.006;2023-07-31T10:06:26;23.10;99.90
10662;DHT22;5379;51.034;7.006;2023-07-31T10:08:54;23.10;99.90
10662;DHT22;5379;51.034;7.006;2023-07-31T10:11:22;22.90;99.90
10662;DHT22;5379;51.034;7.006;2023-07-31T10:20:42;23.40;99.90
10662;DHT22;5379;51.034;7.006;2023-07-31T10:25:39;23.30;99.90
10662;DHT22;5379;51.034;7.006;2023-07-31T10:28:06;23.40;99.90
10662;DHT22;5379;51.034;7.006;2023-07-31T10:30:34;23.50;99.90
10662;DHT22;5379;51.034;7.006;2023-07-31T10:33:04;23.40;99.90
10662;DHT22;5379;51.034;7.006;2023-07-31T10:35:32;23.50;99.90
10662;DHT22;5379;51.034;7.006;2023-07-31T10:38:11;23.70;99.90
10662;DHT22;5379;51.034;7.006;2023-07-31T10:40:39;23.60;99.90
10662;DHT22;5379;51.034;7.006;2023-07-31T10:45:39;24.00;99.90
10662;DHT22;5379;51.034;7.006;2023-07-31T10:48:07;24.40;99.90
10662;DHT22;5379;51.034;7.006;2023-07-31T10:50:46;24.50;99.90
10662;DHT22;5379;51.034;7.006;2023-07-31T10:53:24;24.50;99.90
10662;DHT22;5379;51.034;7.006;2023-07-31T10:55:52;24.60;99.90
10662;DHT22;5379;51.034;7.006;2023-07-31T10:58:20;24.80;99.90
10662;DHT22;5379;51.034;7.006;2023-07-31T11:00:48;24.80;99.90
10662;DHT22;5379;51.034;7.006;2023-07-31T11:03:17;25.10;99.90
10662;DHT22;5379;51.034;7.006;2023-07-31T11:05:52;24.80;99.90
10662;DHT22;5379;51.034;7.006;2023-07-31T11:08:27;24.80;99.90
10662;DHT22;5379;51.034;7.006;2023-07-31T11:11:05;24.60;99.90
10662;DHT22;5379;51.034;7.006;2023-07-31T11:13:34;24.60;99.90
10662;DHT22;5379;51.034;7.006;2023-07-31T11:16:06;24.50;99.90
10662;DHT22;5379;51.034;7.006;2023-07-31T11:18:33;24.20;99.90
10662;DHT22;5379;51.034;7.006;2023-07-31T11:24:08;24.40;99.90
10662;DHT22;5379;51.034;7.006;2023-07-31T11:29:02;24.70;99.90
10662;DHT22;5379;51.034;7.006;2023-07-31T11:31:42;24.50;99.90
10662;DHT22;5379;51.034;7.006;2023-07-31T11:34:09;24.80;99.90
10662;DHT22;5379;51.034;7.006;2023-07-31T11:40:00;24.70;99.90
10662;DHT22;5379;51.034;7.006;2023-07-31T11:43:04;24.90;99.90
10662;DHT22;5379;51.034;7.006;2023-07-31T11:45:51;25.10;99.90
10662;DHT22;5379;51.034;7.006;2023-07-31T11:49:08;25.30;99.90
10662;DHT22;5379;51.034;7.006;2023-07-31T11:54:23;25.40;99.90
10662;DHT22;5379;51.034;7.006;2023-07-31T11:56:52;25.20;99.90
10662;DHT22;5379;51.034;7.006;2023-07-31T11:59:19;25.30;99.90
10662;DHT22;5379;51.034;7.006;2023-07-31T12:01:47;25.10;99.90
10662;DHT22;5379;51.034;7.006;2023-07-31T12:04:21;25.10;99.90
10662;DHT22;5379;51.034;7.006;2023-07-31T12:06:48;24.50;99.90
10662;DHT22;5379;51.034;7.006;2023-07-31T12:09:16;24.00;99.90
10662;DHT22;5379;51.034;7.006;2023-07-31T12:11:43;23.90;99.90
10662;DHT22;5379;51.034;7.006;2023-07-31T12:14:20;23.90;99.90
10662;DHT22;5379;51.034;7.006;2023-07-31T12:16:47;24.10;99.90
10662;DHT22;5379;51.034;7.006;2023-07-31T12:19:14;23.20;99.90
10662;DHT22;5379;51.034;7.006;2023-07-31T12:21:41;23.80;99.90
10662;DHT22;5379;51.034;7.006;2023-07-31T12:24:08;23.50;99.90
10662;DHT22;5379;51.034;7.006;2023-07-31T12:26:35;23.40;99.90
10662;DHT22;5379;51.034;7.006;2023-07-31T12:29:02;23.50;99.90
10662;DHT22;5379;51.034;7.006;2023-07-31T12:31:35;23.80;99.90
10662;DHT22;5379;51.034;7.006;2023-07-31T12:34:02;24.40;99.90
10662;DHT22;5379;51.034;7.006;2023-07-31T12:36:29;24.40;99.90
10662;DHT22;5379;51.034;7.006;2023-07-31T12:39:01;24.20;99.90
10662;DHT22;5379;51.034;7.006;2023-07-31T12:41:28;23.70;99.90
10662;DHT22;5379;51.034;7.006;2023-07-31T12:43:55;23.40;99.90
10662;DHT22;5379;51.034;7.006;2023-07-31T12:46:23;23.20;99.90
10662;DHT22;5379;51.034;7.006;2023-07-31T12:48:51;23.20;99.90
10662;DHT22;5379;51.034;7.006;2023-07-31T12:51:18;23.40;99.90
10662;DHT22;5379;51.034;7.006;2023-07-31T12:53:45;23.10;99.90
10662;DHT22;5379;51.034;7.006;2023-07-31T12:56:12;23.10;99.90
10662;DHT22;5379;51.034;7.006;2023-07-31T12:58:38;23.30;99.90
10662;DHT22;5379;51.034;7.006;2023-07-31T13:01:05;23.40;99.90
10662;DHT22;5379;51.034;7.006;2023-07-31T13:03:32;23.40;99.90
10662;DHT22;5379;51.034;7.006;2023-07-31T13:06:01;23.50;99.90
10662;DHT22;5379;51.034;7.006;2023-07-31T13:08:28;23.90;99.90
10662;DHT22;5379;51.034;7.006;2023-07-31T13:10:55;24.20;99.90
10662;DHT22;5379;51.034;7.006;2023-07-31T13:13:21;24.40;99.90
10662;DHT22;5379;51.034;7.006;2023-07-31T13:15:48;24.50;99.90
10662;DHT22;5379;51.034;7.006;2023-07-31T13:18:15;24.40;99.90
10662;DHT22;5379;51.034;7.006;2023-07-31T13:20:42;24.40;99.90
10662;DHT22;5379;51.034;7.006;2023-07-31T13:23:11;24.40;99.90
10662;DHT22;5379;51.034;7.006;2023-07-31T13:25:37;24.40;99.90
10662;DHT22;5379;51.034;7.006;2023-07-31T13:30:32;23.80;99.90
10662;DHT22;5379;51.034;7.006;2023-07-31T13:32:58;23.80;99.90
10662;DHT22;5379;51.034;7.006;2023-07-31T13:35:25;23.80;99.90
10662;DHT22;5379;51.034;7.006;2023-07-31T13:37:52;23.60;99.90
10662;DHT22;5379;51.034;7.006;2023-07-31T13:40:21;23.70;99.90
10662;DHT22;5379;51.034;7.006;2023-07-31T13:42:49;23.90;99.90
10662;DHT22;5379;51.034;7.006;2023-07-31T13:45:15;24.20;99.90
10662;DHT22;5379;51.034;7.006;2023-07-31T13:47:42;24.30;99.90
10662;DHT22;5379;51.034;7.006;2023-07-31T13:50:09;24.20;99.90
10662;DHT22;5379;51.034;7.006;2023-07-31T13:52:36;24.40;99.90
10662;DHT22;5379;51.034;7.006;2023-07-31T13:55:04;24.70;99.90
10662;DHT22;5379;51.034;7.006;2023-07-31T13:57:32;24.70;99.90
10662;DHT22;5379;51.034;7.006;2023-07-31T14:00:00;25.00;99.90
10662;DHT22;5379;51.034;7.006;2023-07-31T14:02:27;24.80;99.90
10662;DHT22;5379;51.034;7.006;2023-07-31T14:04:54;24.90;99.90
10662;DHT22;5379;51.034;7.006;2023-07-31T14:07:21;24.80;99.90
10662;DHT22;5379;51.034;7.006;2023-07-31T14:09:48;24.70;99.90
10662;DHT22;5379;51.034;7.006;2023-07-31T14:12:15;24.60;99.90
10662;DHT22;5379;51.034;7.006;2023-07-31T14:14:43;24.30;99.90
10662;DHT22;5379;51.034;7.006;2023-07-31T14:17:09;24.00;99.90
10662;DHT22;5379;51.034;7.006;2023-07-31T14:19:36;24.20;99.90
10662;DHT22;5379;51.034;7.006;2023-07-31T14:22:04;24.30;99.90
10662;DHT22;5379;51.034;7.006;2023-07-31T14:24:31;24.20;99.90
10662;DHT22;5379;51.034;7.006;2023-07-31T14:26:58;24.40;99.90
10662;DHT22;5379;51.034;7.006;2023-07-31T14:29:25;24.20;99.90
10662;DHT22;5379;51.034;7.006;2023-07-31T14:31:53;24.20;99.90
10662;DHT22;5379;51.034;7.006;2023-07-31T14:34:21;24.00;99.90
10662;DHT22;5379;51.034;7.006;2023-07-31T14:36:48;24.40;99.90
10662;DHT22;5379;51.034;7.006;2023-07-31T14:39:15;24.80;99.90
10662;DHT22;5379;51.034;7.006;2023-07-31T14:41:42;25.00;99.90
10662;DHT22;5379;51.034;7.006;2023-07-31T14:44:09;24.90;99.90
10662;DHT22;5379;51.034;7.006;2023-07-31T14:46:36;25.10;99.90
10662;DHT22;5379;51.034;7.006;2023-07-31T14:49:05;24.90;99.90
10662;DHT22;5379;51.034;7.006;2023-07-31T14:51:32;24.80;99.90
10662;DHT22;5379;51.034;7.006;2023-07-31T14:53:59;24.90;99.90
10662;DHT22;5379;51.034;7.006;2023-07-31T14:56:26;25.00;99.90
10662;DHT22;5379;51.034;7.006;2023-07-31T14:58:53;24.60;99.90
10662;DHT22;5379;51.034;7.006;2023-07-31T15:01:20;24.40;99.90
10662;DHT22;5379;51.034;7.006;2023-07-31T15:03:47;24.40;99.90
10662;DHT22;5379;51.034;7.006;2023-07-31T15:06:16;24.20;99.90
10662;DHT22;5379;51.034;7.006;2023-07-31T15:08:43;24.40;99.90
10662;DHT22;5379;51.034;7.006;2023-07-31T15:11:10;24.40;99.90
10662;DHT22;5379;51.034;7.006;2023-07-31T15:13:37;24.60;99.90
10662;DHT22;5379;51.034;7.006;2023-07-31T15:16:04;24.60;99.90
10662;DHT22;5379;51.034;7.006;2023-07-31T15:18:31;24.60;99.90
10662;DHT22;5379;51.034;7.006;2023-07-31T15:20:58;24.40;99.90
10662;DHT22;5379;51.034;7.006;2023-07-31T15:23:26;24.50;99.90
10662;DHT22;5379;51.034;7.006;2023-07-31T15:25:53;24.40;99.90
10662;DHT22;5379;51.034;7.006;2023-07-31T15:28:20;24.10;99.90
10662;DHT22;5379;51.034;7.006;2023-07-31T15:30:48;24.00;99.90
10662;DHT22;5379;51.034;7.006;2023-07-31T15:33:15;24.00;99.90
10662;DHT22;5379;51.034;7.006;2023-07-31T15:35:42;24.10;99.90
10662;DHT22;5379;51.034;7.006;2023-07-31T15:38:09;24.20;99.90
10662;DHT22;5379;51.034;7.006;2023-07-31T15:40:38;24.50;99.90
10662;DHT22;5379;51.034;7.006;2023-07-31T15:43:05;24.60;99.90
10662;DHT22;5379;51.034;7.006;2023-07-31T15:45:32;24.70;99.90
10662;DHT22;5379;51.034;7.006;2023-07-31T15:47:59;24.60;99.90
10662;DHT22;5379;51.034;7.006;2023-07-31T15:52:53;25.00;99.90
10662;DHT22;5379;51.034;7.006;2023-07-31T15:55:20;24.80;99.90
10662;DHT22;5379;51.034;7.006;2023-07-31T15:57:51;24.50;99.90
10662;DHT22;5379;51.034;7.006;2023-07-31T16:00:18;24.30;99.90
10662;DHT22;5379;51.034;7.006;2023-07-31T16:02:45;24.50;99.90
10662;DHT22;5379;51.034;7.006;2023-07-31T16:05:12;24.40;99.90
10662;DHT22;5379;51.034;7.006;2023-07-31T16:07:39;24.20;99.90
10662;DHT22;5379;51.034;7.006;2023-07-31T16:10:07;24.20;99.90
10662;DHT22;5379;51.034;7.006;2023-07-31T16:12:34;24.50;99.90
10662;DHT22;5379;51.034;7.006;2023-07-31T16:15:03;24.80;99.90
10662;DHT22;5379;51.034;7.006;2023-07-31T16:17:30;25.00;99.90
10662;DHT22;5379;51.034;7.006;2023-07-31T16:19:58;25.30;99.90
10662;DHT22;5379;51.034;7.006;2023-07-31T16:22:26;25.70;99.90
10662;DHT22;5379;51.034;7.006;2023-07-31T16:24:57;25.60;99.90
10662;DHT22;5379;51.034;7.006;2023-07-31T16:27:24;26.20;99.90
10662;DHT22;5379;51.034;7.006;2023-07-31T16:29:51;24.50;99.90
10662;DHT22;5379;51.034;7.006;2023-07-31T16:32:20;24.30;99.90
10662;DHT22;5379;51.034;7.006;2023-07-31T16:34:47;24.00;99.90
10662;DHT22;5379;51.034;7.006;2023-07-31T16:37:14;23.60;99.90
10662;DHT22;5379;51.034;7.006;2023-07-31T16:39:41;23.60;99.90
10662;DHT22;5379;51.034;7.006;2023-07-31T16:42:12;23.50;99.90
10662;DHT22;5379;51.034;7.006;2023-07-31T16:44:39;23.30;99.90
10662;DHT22;5379;51.034;7.006;2023-07-31T16:47:06;23.40;99.90
10662;DHT22;5379;51.034;7.006;2023-07-31T16:49:34;23.70;99.90
10662;DHT22;5379;51.034;7.006;2023-07-31T16:52:01;23.90;99.90
10662;DHT22;5379;51.034;7.006;2023-07-31T16:54:28;24.00;99.90
10662;DHT22;5379;51.034;7.006;2023-07-31T16:56:55;24.40;99.90
10662;DHT22;5379;51.034;7.006;2023-07-31T16:59:22;24.50;99.90
10662;DHT22;5379;51.034;7.006;2023-07-31T17:01:49;22.80;99.90
10662;DHT22;5379;51.034;7.006;2023-07-31T17:04:16;24.90;99.90
10662;DHT22;5379;51.034;7.006;2023-07-31T17:06:45;24.70;99.90
10662;DHT22;5379;51.034;7.006;2023-07-31T17:09:12;24.60;99.90
10662;DHT22;5379;51.034;7.006;2023-07-31T17:11:38;24.10;99.90
10662;DHT22;5379;51.034;7.006;2023-07-31T17:16:34;23.40;99.90
10662;DHT22;5379;51.034;7.006;2023-07-31T17:19:02;23.50;99.90
10662;DHT22;5379;51.034;7.006;2023-07-31T17:21:29;23.40;99.90
10662;DHT22;5379;51.034;7.006;2023-07-31T17:23:57;23.30;99.90
10662;DHT22;5379;51.034;7.006;2023-07-31T17:26:24;23.30;99.90
10662;DHT22;5379;51.034;7.006;2023-07-31T17:28:52;23.20;99.90
10662;DHT22;5379;51.034;7.006;2023-07-31T17:31:20;23.20;99.90
10662;DHT22;5379;51.034;7.006;2023-07-31T17:33:47;23.20;99.90
10662;DHT22;5379;51.034;7.006;2023-07-31T17:36:13;23.20;99.90
10662;DHT22;5379;51.034;7.006;2023-07-31T17:38:40;23.10;99.90
10662;DHT22;5379;51.034;7.006;2023-07-31T17:41:09;23.10;99.90
10662;DHT22;5379;51.034;7.006;2023-07-31T17:43:36;23.10;99.90
10662;DHT22;5379;51.034;7.006;2023-07-31T17:46:03;23.10;99.90
10662;DHT22;5379;51.034;7.006;2023-07-31T17:48:30;23.10;99.90
10662;DHT22;5379;51.034;7.006;2023-07-31T17:50:57;23.00;99.90
10662;DHT22;5379;51.034;7.006;2023-07-31T17:53:24;22.90;99.90
10662;DHT22;5379;51.034;7.006;2023-07-31T17:55:51;23.10;99.90
10662;DHT22;5379;51.034;7.006;2023-07-31T17:58:19;23.10;99.90
10662;DHT22;5379;51.034;7.006;2023-07-31T18:00:46;23.10;99.90
10662;DHT22;5379;51.034;7.006;2023-07-31T18:03:13;23.00;99.90
10662;DHT22;5379;51.034;7.006;2023-07-31T18:05:40;23.10;99.90
10662;DHT22;5379;51.034;7.006;2023-07-31T18:08:07;22.90;99.90
10662;DHT22;5379;51.034;7.006;2023-07-31T18:10:34;22.90;99.90
10662;DHT22;5379;51.034;7.006;2023-07-31T18:13:01;22.90;99.90
10662;DHT22;5379;51.034;7.006;2023-07-31T18:15:29;23.00;99.90
10662;DHT22;5379;51.034;7.006;2023-07-31T18:17:56;22.90;99.90
10662;DHT22;5379;51.034;7.006;2023-07-31T18:20:23;23.00;99.90
10662;DHT22;5379;51.034;7.006;2023-07-31T18:22:50;22.80;99.90
10662;DHT22;5379;51.034;7.006;2023-07-31T18:25:17;22.90;99.90
10662;DHT22;5379;51.034;7.006;2023-07-31T18:30:12;22.80;99.90
10662;DHT22;5379;51.034;7.006;2023-07-31T18:32:40;22.70;99.90
10662;DHT22;5379;51.034;7.006;2023-07-31T18:35:07;22.60;99.90
10662;DHT22;5379;51.034;7.006;2023-07-31T18:37:34;22.60;99.90
10662;DHT22;5379;51.034;7.006;2023-07-31T18:40:01;22.50;99.90
10662;DHT22;5379;51.034;7.006;2023-07-31T18:42:28;22.50;99.90
10662;DHT22;5379;51.034;7.006;2023-07-31T18:44:55;23.00;99.90
10662;DHT22;5379;51.034;7.006;2023-07-31T18:47:22;22.70;99.90
10662;DHT22;5379;51.034;7.006;2023-07-31T18:49:50;22.70;99.90
10662;DHT22;5379;51.034;7.006;2023-07-31T18:52:17;22.70;99.90
10662;DHT22;5379;51.034;7.006;2023-07-31T18:54:44;22.70;99.90
10662;DHT22;5379;51.034;7.006;2023-07-31T18:57:11;22.70;99.90
10662;DHT22;5379;51.034;7.006;2023-07-31T18:59:38;22.80;99.90
10662;DHT22;5379;51.034;7.006;2023-07-31T19:02:05;22.80;99.90
10662;DHT22;5379;51.034;7.006;2023-07-31T19:04:32;23.20;99.90
10662;DHT22;5379;51.034;7.006;2023-07-31T19:07:01;23.10;99.90
10662;DHT22;5379;51.034;7.006;2023-07-31T19:09:31;22.90;99.90
10662;DHT22;5379;51.034;7.006;2023-07-31T19:11:58;22.80;99.90
10662;DHT22;5379;51.034;7.006;2023-07-31T19:14:25;22.80;99.90
10662;DHT22;5379;51.034;7.006;2023-07-31T19:16:52;22.70;99.90
10662;DHT22;5379;51.034;7.006;2023-07-31T19:19:20;22.60;99.90
10662;DHT22;5379;51.034;7.006;2023-07-31T19:21:47;22.50;99.90
10662;DHT22;5379;51.034;7.006;2023-07-31T19:24:15;22.50;99.90
10662;DHT22;5379;51.034;7.006;2023-07-31T19:26:42;22.40;99.90
10662;DHT22;5379;51.034;7.006;2023-07-31T19:29:10;22.50;99.90
10662;DHT22;5379;51.034;7.006;2023-07-31T19:31:37;22.50;99.90
10662;DHT22;5379;51.034;7.006;2023-07-31T19:34:04;21.20;99.90
10662;DHT22;5379;51.034;7.006;2023-07-31T19:36:31;22.50;99.90
10662;DHT22;5379;51.034;7.006;2023-07-31T19:38:58;23.00;99.90
10662;DHT22;5379;51.034;7.006;2023-07-31T19:41:29;22.80;99.90
10662;DHT22;5379;51.034;7.006;2023-07-31T19:43:55;22.90;99.90
10662;DHT22;5379;51.034;7.006;2023-07-31T19:46:22;22.60;99.90
10662;DHT22;5379;51.034;7.006;2023-07-31T19:48:50;22.50;99.90
10662;DHT22;5379;51.034;7.006;2023-07-31T19:51:18;22.80;99.90
10662;DHT22;5379;51.034;7.006;2023-07-31T19:53:45;22.90;99.90
10662;DHT22;5379;51.034;7.006;2023-07-31T19:56:12;23.10;99.90
10662;DHT22;5379;51.034;7.006;2023-07-31T19:58:41;22.70;99.90
10662;DHT22;5379;51.034;7.006;2023-07-31T20:01:09;22.50;99.90
10662;DHT22;5379;51.034;7.006;2023-07-31T20:03:36;22.50;99.90
10662;DHT22;5379;51.034;7.006;2023-07-31T20:06:03;22.40;99.90
10662;DHT22;5379;51.034;7.006;2023-07-31T20:08:30;22.80;99.90
10662;DHT22;5379;51.034;7.006;2023-07-31T20:10:57;22.50;99.90
10662;DHT22;5379;51.034;7.006;2023-07-31T20:13:26;22.30;99.90
10662;DHT22;5379;51.034;7.006;2023-07-31T20:15:55;22.40;99.90
10662;DHT22;5379;51.034;7.006;2023-07-31T20:18:22;22.30;99.90
10662;DHT22;5379;51.034;7.006;2023-07-31T20:20:49;22.40;99.90
10662;DHT22;5379;51.034;7.006;2023-07-31T20:23:16;22.30;99.90
10662;DHT22;5379;51.034;7.006;2023-07-31T20:25:43;22.20;99.90
10662;DHT22;5379;51.034;7.006;2023-07-31T20:30:37;22.10;99.90
10662;DHT22;5379;51.034;7.006;2023-07-31T20:33:05;22.10;99.90
10662;DHT22;5379;51.034;7.006;2023-07-31T20:35:32;21.90;99.90
10662;DHT22;5379;51.034;7.006;2023-07-31T20:37:59;21.80;99.90
10662;DHT22;5379;51.034;7.006;2023-07-31T20:40:27;21.90;99.90
10662;DHT22;5379;51.034;7.006;2023-07-31T20:42:58;21.90;99.90
10662;DHT22;5379;51.034;7.006;2023-07-31T20:45:27;22.00;99.90
10662;DHT22;5379;51.034;7.006;2023-07-31T20:47:55;21.90;99.90
10662;DHT22;5379;51.034;7.006;2023-07-31T20:50:26;21.90;99.90
10662;DHT22;5379;51.034;7.006;2023-07-31T20:55:20;21.90;99.90
10662;DHT22;5379;51.034;7.006;2023-07-31T20:57:47;21.80;99.90
10662;DHT22;5379;51.034;7.006;2023-07-31T21:02:42;22.10;99.90
10662;DHT22;5379;51.034;7.006;2023-07-31T21:05:09;22.10;99.90
10662;DHT22;5379;51.034;7.006;2023-07-31T21:07:38;22.20;99.90
10662;DHT22;5379;51.034;7.006;2023-07-31T21:10:08;22.30;99.90
10662;DHT22;5379;51.034;7.006;2023-07-31T21:12:37;22.10;99.90
10662;DHT22;5379;51.034;7.006;2023-07-31T21:15:07;22.00;99.90
10662;DHT22;5379;51.034;7.006;2023-07-31T21:17:34;22.10;99.90
10662;DHT22;5379;51.034;7.006;2023-07-31T21:20:00;22.10;99.90
10662;DHT22;5379;51.034;7.006;2023-07-31T21:22:27;22.10;99.90
10662;DHT22;5379;51.034;7.006;2023-07-31T21:24:56;22.20;99.90
10662;DHT22;5379;51.034;7.006;2023-07-31T21:27:23;22.40;99.90
10662;DHT22;5379;51.034;7.006;2023-07-31T21:29:50;22.40;99.90
10662;DHT22;5379;51.034;7.006;2023-07-31T21:32:18;22.20;99.90
10662;DHT22;5379;51.034;7.006;2023-07-31T21:34:45;22.00;99.90